PIMOHWEATHER Station Historical Data
Daily Summary for July 20, 2020 Units:  Metric    English   Both
Daily Weekly Monthly Yearly
  High: Low: Average:
Temperature: 36.0 °C 26.0 °C 29.7 °C
Dew Point: 27.0 °C 25.0 °C 25.5 °C
Humidity: 91% 58% 79%
Wind Speed: 27km/h 0km/h 7.2km/h
Wind Gust: 32km/h - -
Wind- - SSE
Pressure: 1012.5 hPa 1008.8 hPa -
Precipitation: 0.89 mm    
 
 
Tabular Data for July 20, 2020
Time Temperature Dew Point Pressure Wind Wind Speed Wind Gust Humidity Rainfall Rate (Hourly) solar
00:04 29.0 °C 25.0 °C 1012.0 hPa ESE 4 km/h 8 km/h 80% 0.00 mm 0.00 W/m2
00:09 28.0 °C 25.0 °C 1012.0 hPa ESE 6 km/h 12 km/h 79% 0.00 mm 0.00 W/m2
00:14 28.0 °C 25.0 °C 1011.8 hPa South 3 km/h 8 km/h 79% 0.00 mm 0.00 W/m2
00:19 28.0 °C 25.0 °C 1011.8 hPa ESE 6 km/h 8 km/h 79% 0.00 mm 0.00 W/m2
00:24 28.0 °C 25.0 °C 1011.7 hPa ESE 8 km/h 12 km/h 79% 0.00 mm 0.00 W/m2
00:29 28.0 °C 25.0 °C 1011.6 hPa East 4 km/h 8 km/h 80% 0.00 mm 0.00 W/m2
00:34 28.0 °C 25.0 °C 1011.5 hPa SSE 4 km/h 8 km/h 80% 0.00 mm 0.00 W/m2
00:39 28.0 °C 25.0 °C 1011.3 hPa ESE 7 km/h 8 km/h 81% 0.00 mm 0.00 W/m2
00:44 28.0 °C 25.0 °C 1011.5 hPa ESE 15 km/h 20 km/h 82% 0.00 mm 0.00 W/m2
00:49 28.0 °C 25.0 °C 1011.5 hPa ESE 9 km/h 12 km/h 84% 0.00 mm 0.00 W/m2
00:54 28.0 °C 25.0 °C 1011.7 hPa East 7 km/h 8 km/h 85% 0.00 mm 0.00 W/m2
00:59 27.0 °C 25.0 °C 1011.7 hPa East 9 km/h 12 km/h 86% 0.00 mm 0.00 W/m2
01:04 27.0 °C 25.0 °C 1011.8 hPa East 3 km/h 4 km/h 87% 1.80 mm 0.00 W/m2
01:09 27.0 °C 25.0 °C 1011.8 hPa ESE 2 km/h 4 km/h 88% 1.80 mm 0.00 W/m2
01:14 27.0 °C 25.0 °C 1011.6 hPa ESE 2 km/h 4 km/h 88% 1.80 mm 0.00 W/m2
01:19 27.0 °C 25.0 °C 1011.4 hPa ESE 5 km/h 8 km/h 88% 1.80 mm 0.00 W/m2
01:24 27.0 °C 25.0 °C 1011.2 hPa East 3 km/h 4 km/h 89% 1.80 mm 0.00 W/m2
01:29 27.0 °C 25.0 °C 1011.0 hPa SE 5 km/h 8 km/h 89% 1.80 mm 0.00 W/m2
01:34 27.0 °C 25.0 °C 1011.0 hPa ESE 5 km/h 8 km/h 90% 1.80 mm 0.00 W/m2
01:39 27.0 °C 25.0 °C 1011.0 hPa ESE 3 km/h 4 km/h 91% 1.80 mm 0.00 W/m2
01:44 26.0 °C 25.0 °C 1011.1 hPa SE 4 km/h 8 km/h 91% 1.80 mm 0.00 W/m2
01:49 26.0 °C 25.0 °C 1011.0 hPa ESE 5 km/h 8 km/h 90% 0.00 mm 0.00 W/m2
01:54 26.0 °C 25.0 °C 1010.9 hPa ESE 6 km/h 8 km/h 90% 0.00 mm 0.00 W/m2
01:59 26.0 °C 25.0 °C 1010.9 hPa ESE 8 km/h 16 km/h 89% 0.00 mm 0.00 W/m2
02:04 27.0 °C 25.0 °C 1010.8 hPa ESE 6 km/h 8 km/h 89% 0.00 mm 0.00 W/m2
02:09 27.0 °C 25.0 °C 1011.2 hPa East 8 km/h 8 km/h 89% 0.00 mm 0.00 W/m2
02:14 27.0 °C 25.0 °C 1011.2 hPa ESE 5 km/h 8 km/h 89% 0.00 mm 0.00 W/m2
02:19 27.0 °C 25.0 °C 1011.2 hPa SE 9 km/h 12 km/h 88% 0.00 mm 0.00 W/m2
02:24 27.0 °C 25.0 °C 1011.2 hPa SE 10 km/h 12 km/h 88% 0.00 mm 0.00 W/m2
02:29 27.0 °C 25.0 °C 1010.9 hPa ESE 6 km/h 8 km/h 88% 0.00 mm 0.00 W/m2
02:34 27.0 °C 25.0 °C 1011.0 hPa East 5 km/h 8 km/h 88% 0.00 mm 0.00 W/m2
02:39 27.0 °C 25.0 °C 1011.0 hPa SE 9 km/h 12 km/h 88% 0.00 mm 0.00 W/m2
02:44 27.0 °C 25.0 °C 1011.2 hPa ESE 6 km/h 12 km/h 89% 0.00 mm 0.00 W/m2
02:49 27.0 °C 25.0 °C 1011.1 hPa ESE 9 km/h 12 km/h 89% 0.00 mm 0.00 W/m2
02:54 27.0 °C 25.0 °C 1011.1 hPa ESE 10 km/h 16 km/h 89% 0.00 mm 0.00 W/m2
02:59 27.0 °C 25.0 °C 1010.9 hPa ESE 6 km/h 8 km/h 89% 0.00 mm 0.00 W/m2
03:04 27.0 °C 25.0 °C 1011.0 hPa ESE 6 km/h 8 km/h 89% 0.00 mm 0.00 W/m2
03:09 27.0 °C 25.0 °C 1011.0 hPa ESE 5 km/h 8 km/h 88% 0.00 mm 0.00 W/m2
03:14 27.0 °C 25.0 °C 1011.0 hPa SE 1 km/h 4 km/h 88% 0.00 mm 0.00 W/m2
03:19 27.0 °C 25.0 °C 1010.9 hPa ESE 3 km/h 4 km/h 88% 0.00 mm 0.00 W/m2
03:24 27.0 °C 25.0 °C 1010.9 hPa SE 3 km/h 4 km/h 88% 0.00 mm 0.00 W/m2
03:29 27.0 °C 25.0 °C 1011.0 hPa SE 3 km/h 4 km/h 87% 0.00 mm 0.00 W/m2
03:34 27.0 °C 25.0 °C 1011.0 hPa SE 4 km/h 8 km/h 87% 0.00 mm 0.00 W/m2
03:39 27.0 °C 25.0 °C 1011.1 hPa ESE 5 km/h 8 km/h 87% 0.00 mm 0.00 W/m2
03:44 27.0 °C 25.0 °C 1011.1 hPa ESE 5 km/h 12 km/h 87% 0.00 mm 0.00 W/m2
03:49 27.0 °C 25.0 °C 1011.1 hPa East 2 km/h 4 km/h 88% 0.00 mm 0.00 W/m2
03:54 27.0 °C 25.0 °C 1011.2 hPa ESE 3 km/h 4 km/h 87% 0.00 mm 0.00 W/m2
03:59 27.0 °C 25.0 °C 1011.1 hPa Calm   4 km/h 87% 0.00 mm 0.00 W/m2
04:04 27.0 °C 25.0 °C 1011.1 hPa ESE 2 km/h 4 km/h 87% 0.00 mm 0.00 W/m2
04:09 27.0 °C 25.0 °C 1011.2 hPa ESE 3 km/h 4 km/h 87% 0.00 mm 0.00 W/m2
04:14 27.0 °C 25.0 °C 1011.1 hPa Calm     87% 0.00 mm 0.00 W/m2
04:19 27.0 °C 25.0 °C 1011.0 hPa ESE 2 km/h 4 km/h 87% 0.00 mm 0.00 W/m2
04:24 27.0 °C 25.0 °C 1011.1 hPa East 5 km/h 8 km/h 86% 0.00 mm 0.00 W/m2
04:29 27.0 °C 25.0 °C 1010.8 hPa ESE 3 km/h 4 km/h 86% 0.00 mm 0.00 W/m2
04:34 27.0 °C 25.0 °C 1010.7 hPa ESE 3 km/h 4 km/h 86% 0.00 mm 0.00 W/m2
04:39 27.0 °C 25.0 °C 1010.7 hPa Calm   4 km/h 87% 0.00 mm 0.00 W/m2
04:44 27.0 °C 25.0 °C 1010.7 hPa Calm     87% 0.00 mm 0.00 W/m2
04:49 27.0 °C 25.0 °C 1010.7 hPa Calm   4 km/h 87% 0.00 mm 0.00 W/m2
04:54 27.0 °C 25.0 °C 1010.6 hPa North 2 km/h 4 km/h 87% 0.00 mm 0.00 W/m2
04:59 27.0 °C 25.0 °C 1010.6 hPa NNE 4 km/h 4 km/h 89% 0.00 mm 0.00 W/m2
05:04 27.0 °C 25.0 °C 1010.5 hPa North 5 km/h 8 km/h 90% 0.00 mm 0.00 W/m2
05:09 27.0 °C 25.0 °C 1010.6 hPa North 4 km/h 4 km/h 90% 0.00 mm 0.00 W/m2
05:14 26.0 °C 25.0 °C 1010.4 hPa North 1 km/h 4 km/h 91% 0.00 mm 0.00 W/m2
05:19 26.0 °C 25.0 °C 1010.3 hPa NNE 6 km/h 8 km/h 90% 0.00 mm 0.00 W/m2
05:24 26.0 °C 25.0 °C 1010.4 hPa NNE 2 km/h 4 km/h 91% 0.00 mm 0.00 W/m2
05:29 26.0 °C 25.0 °C 1010.5 hPa Calm     91% 0.00 mm 0.00 W/m2
05:34 26.0 °C 25.0 °C 1010.5 hPa Calm     90% 0.00 mm 0.00 W/m2
05:39 26.0 °C 25.0 °C 1010.4 hPa Calm     90% 0.00 mm 0.07 W/m2
05:44 26.0 °C 25.0 °C 1010.4 hPa Calm     90% 0.00 mm 4.01 W/m2
05:49 27.0 °C 25.0 °C 1010.6 hPa Calm     90% 0.00 mm 9.40 W/m2
05:54 27.0 °C 25.0 °C 1010.7 hPa ESE 3 km/h 4 km/h 89% 0.00 mm 17.77 W/m2
05:59 27.0 °C 25.0 °C 1010.8 hPa ESE 5 km/h 8 km/h 89% 0.00 mm 27.41 W/m2
06:04 27.0 °C 25.0 °C 1010.9 hPa ESE 7 km/h 12 km/h 87% 0.00 mm 40.14 W/m2
06:09 27.0 °C 25.0 °C 1011.0 hPa SSE 4 km/h 4 km/h 86% 0.00 mm 53.60 W/m2
06:14 27.0 °C 25.0 °C 1011.0 hPa ENE 4 km/h 4 km/h 85% 0.00 mm 67.18 W/m2
06:19 27.0 °C 25.0 °C 1010.9 hPa SE 2 km/h 4 km/h 85% 0.00 mm 80.03 W/m2
06:24 28.0 °C 25.0 °C 1010.9 hPa ESE 1 km/h 4 km/h 84% 0.00 mm 89.23 W/m2
06:29 28.0 °C 25.0 °C 1010.9 hPa ESE 3 km/h 4 km/h 84% 0.00 mm 132.95 W/m2
06:34 28.0 °C 25.0 °C 1011.0 hPa East 3 km/h 4 km/h 83% 0.00 mm 157.03 W/m2
06:39 28.0 °C 25.0 °C 1011.0 hPa East 5 km/h 8 km/h 82% 0.00 mm 216.38 W/m2
06:44 29.0 °C 25.0 °C 1011.1 hPa East 2 km/h 4 km/h 80% 0.00 mm 211.15 W/m2
06:49 29.0 °C 25.0 °C 1011.1 hPa ESE 3 km/h 4 km/h 79% 0.00 mm 194.85 W/m2
06:54 29.0 °C 25.0 °C 1011.0 hPa ESE 3 km/h 4 km/h 79% 0.00 mm 230.77 W/m2
06:59 29.0 °C 25.0 °C 1011.2 hPa ESE 4 km/h 4 km/h 78% 0.00 mm 256.93 W/m2
07:04 29.0 °C 25.0 °C 1011.2 hPa SSW 1 km/h 4 km/h 77% 0.00 mm 199.84 W/m2
07:09 29.0 °C 25.0 °C 1011.4 hPa East 3 km/h 4 km/h 78% 0.00 mm 143.79 W/m2
07:14 29.0 °C 25.0 °C 1011.3 hPa Calm   4 km/h 78% 0.00 mm 142.13 W/m2
07:19 29.0 °C 25.0 °C 1011.6 hPa Calm   4 km/h 78% 0.00 mm 147.90 W/m2
07:24 29.0 °C 25.0 °C 1011.4 hPa Calm   4 km/h 78% 0.00 mm 220.79 W/m2
07:29 30.0 °C 25.0 °C 1011.3 hPa NE 2 km/h 4 km/h 76% 0.00 mm 246.14 W/m2
07:34 30.0 °C 25.0 °C 1011.3 hPa Calm   4 km/h 75% 0.00 mm 306.37 W/m2
07:39 31.0 °C 25.0 °C 1011.3 hPa Calm   4 km/h 74% 0.00 mm 316.63 W/m2
07:44 31.0 °C 25.0 °C 1011.5 hPa NNE 4 km/h 4 km/h 75% 0.00 mm 278.53 W/m2
07:49 30.0 °C 25.0 °C 1011.3 hPa ENE 3 km/h 4 km/h 75% 0.00 mm 261.35 W/m2
07:54 30.0 °C 25.0 °C 1011.3 hPa SE 1 km/h 4 km/h 76% 0.00 mm 219.54 W/m2
07:59 30.0 °C 25.0 °C 1011.3 hPa Calm   4 km/h 75% 0.00 mm 190.89 W/m2
08:04 30.0 °C 25.0 °C 1011.3 hPa East 3 km/h 4 km/h 75% 0.00 mm 185.09 W/m2
08:09 30.0 °C 25.0 °C 1011.3 hPa SSE 1 km/h 4 km/h 75% 0.00 mm 189.76 W/m2
08:14 30.0 °C 25.0 °C 1011.5 hPa ESE 4 km/h 4 km/h 74% 0.00 mm 195.32 W/m2
08:19 30.0 °C 25.0 °C 1011.4 hPa SSE 8 km/h 8 km/h 74% 0.00 mm 194.02 W/m2
08:24 30.0 °C 25.0 °C 1011.4 hPa SE 6 km/h 8 km/h 75% 0.00 mm 200.48 W/m2
08:29 30.0 °C 25.0 °C 1011.5 hPa SSE 5 km/h 8 km/h 76% 0.00 mm 271.53 W/m2
08:31 30.0 °C 25.0 °C 1011.2 hPa SE 2 km/h 4 km/h 74% 0.00 mm 282.35 W/m2
08:39 31.0 °C 25.0 °C 1011.5 hPa NE 1 km/h 4 km/h 73% 0.00 mm 286.04 W/m2
08:44 31.0 °C 25.0 °C 1011.5 hPa SE 4 km/h 8 km/h 74% 0.00 mm 325.07 W/m2
08:49 31.0 °C 25.0 °C 1011.6 hPa SSE 8 km/h 12 km/h 73% 0.00 mm 384.52 W/m2
08:54 31.0 °C 25.0 °C 1011.7 hPa SSE 10 km/h 12 km/h 72% 0.00 mm 451.27 W/m2
08:59 31.0 °C 25.0 °C 1011.6 hPa SSE 12 km/h 12 km/h 71% 0.00 mm 494.06 W/m2
09:04 31.0 °C 25.0 °C 1011.5 hPa SE 9 km/h 12 km/h 71% 0.00 mm 430.67 W/m2
09:09 32.0 °C 26.0 °C 1011.7 hPa East 7 km/h 8 km/h 71% 0.00 mm 471.80 W/m2
09:14 33.0 °C 26.0 °C 1011.6 hPa SE 10 km/h 16 km/h 68% 0.00 mm 517.75 W/m2
09:19 32.0 °C 26.0 °C 1011.6 hPa SE 10 km/h 12 km/h 67% 0.00 mm 501.75 W/m2
09:23 33.0 °C 26.0 °C 1011.6 hPa ESE 5 km/h 8 km/h 67% 0.00 mm 495.26 W/m2
09:28 33.0 °C 26.0 °C 1011.5 hPa SE 2 km/h 4 km/h 66% 0.00 mm 448.55 W/m2
09:34 33.0 °C 25.0 °C 1011.7 hPa East 10 km/h 12 km/h 65% 0.00 mm 524.74 W/m2
09:39 33.0 °C 26.0 °C 1011.7 hPa SE 8 km/h 12 km/h 66% 0.00 mm 540.55 W/m2
09:44 33.0 °C 26.0 °C 1011.8 hPa SSE 6 km/h 8 km/h 66% 0.00 mm 528.15 W/m2
09:48 33.0 °C 26.0 °C 1011.6 hPa SE 15 km/h 16 km/h 66% 0.00 mm 515.25 W/m2
09:54 33.0 °C 26.0 °C 1011.7 hPa SE 10 km/h 12 km/h 68% 0.00 mm 519.56 W/m2
09:59 33.0 °C 26.0 °C 1011.6 hPa NE 12 km/h 16 km/h 67% 0.00 mm 591.96 W/m2
10:04 34.0 °C 26.0 °C 1011.4 hPa ESE 6 km/h 8 km/h 65% 0.00 mm 595.31 W/m2
10:09 34.0 °C 26.0 °C 1011.5 hPa ENE 11 km/h 16 km/h 66% 0.00 mm 612.75 W/m2
10:14 34.0 °C 26.0 °C 1011.4 hPa SSE 7 km/h 8 km/h 66% 0.00 mm 533.94 W/m2
10:19 34.0 °C 26.0 °C 1011.3 hPa ESE 3 km/h 4 km/h 64% 0.00 mm 603.36 W/m2
10:24 34.0 °C 26.0 °C 1011.2 hPa NE 5 km/h 8 km/h 63% 0.00 mm 649.45 W/m2
10:29 33.0 °C 26.0 °C 1011.3 hPa SE 6 km/h 8 km/h 65% 0.00 mm 563.79 W/m2
10:34 33.0 °C 26.0 °C 1011.2 hPa SE 11 km/h 16 km/h 66% 0.00 mm 608.06 W/m2
10:38 33.0 °C 26.0 °C 1011.4 hPa SE 9 km/h 12 km/h 66% 0.00 mm 602.77 W/m2
10:44 34.0 °C 26.0 °C 1011.2 hPa East 6 km/h 8 km/h 64% 0.00 mm 409.33 W/m2
10:49 34.0 °C 26.0 °C 1011.2 hPa East 10 km/h 12 km/h 66% 0.00 mm 367.57 W/m2
10:54 33.0 °C 25.0 °C 1011.2 hPa ESE 18 km/h 20 km/h 64% 0.00 mm 418.51 W/m2
10:59 33.0 °C 25.0 °C 1011.2 hPa SE 18 km/h 24 km/h 65% 0.00 mm 494.72 W/m2
11:03 34.0 °C 26.0 °C 1011.1 hPa SE 13 km/h 16 km/h 64% 0.00 mm 369.57 W/m2
11:08 33.0 °C 26.0 °C 1010.9 hPa SE 15 km/h 20 km/h 65% 0.00 mm 423.25 W/m2
11:19 34.0 °C 26.0 °C 1010.9 hPa ESE 15 km/h 16 km/h 63% 0.00 mm 719.55 W/m2
11:24 34.0 °C 26.0 °C 1011.0 hPa ESE 16 km/h 20 km/h 62% 0.00 mm 589.26 W/m2
11:29 34.0 °C 26.0 °C 1010.6 hPa ESE 8 km/h 12 km/h 62% 0.00 mm 517.55 W/m2
11:34 35.0 °C 26.0 °C 1010.8 hPa ESE 10 km/h 12 km/h 62% 0.00 mm 507.94 W/m2
11:39 34.0 °C 26.0 °C 1010.8 hPa ESE 11 km/h 16 km/h 61% 0.00 mm 425.77 W/m2
11:44 34.0 °C 25.0 °C 1010.8 hPa SE 10 km/h 12 km/h 61% 0.00 mm 409.58 W/m2
11:49 34.0 °C 26.0 °C 1010.6 hPa East 8 km/h 12 km/h 62% 0.00 mm 390.32 W/m2
11:51 34.0 °C 26.0 °C 1010.5 hPa ESE 9 km/h 16 km/h 61% 0.00 mm 468.52 W/m2
11:59 34.0 °C 26.0 °C 1010.5 hPa SSE 6 km/h 8 km/h 62% 0.00 mm 443.10 W/m2
12:04 34.0 °C 25.0 °C 1010.5 hPa ESE 11 km/h 12 km/h 60% 0.00 mm 563.16 W/m2
12:09 35.0 °C 26.0 °C 1010.5 hPa North 8 km/h 12 km/h 60% 0.00 mm 857.26 W/m2
12:14 36.0 °C 26.0 °C 1010.5 hPa SE 9 km/h 12 km/h 60% 0.00 mm 890.61 W/m2
12:19 35.0 °C 26.0 °C 1010.5 hPa ESE 10 km/h 12 km/h 59% 0.00 mm 734.09 W/m2
12:24 36.0 °C 27.0 °C 1010.5 hPa East 8 km/h 12 km/h 59% 0.00 mm 789.90 W/m2
12:29 36.0 °C 26.0 °C 1010.5 hPa ENE 16 km/h 20 km/h 61% 0.00 mm 765.70 W/m2
12:34 35.0 °C 27.0 °C 1010.5 hPa ESE 13 km/h 16 km/h 62% 0.00 mm 796.88 W/m2
12:39 35.0 °C 26.0 °C 1010.6 hPa SE 23 km/h 28 km/h 63% 0.00 mm 821.83 W/m2
12:41 34.0 °C 26.0 °C 1010.4 hPa SSE 17 km/h 20 km/h 63% 0.00 mm 294.36 W/m2
12:48 34.0 °C 26.0 °C 1010.5 hPa ESE 10 km/h 12 km/h 63% 0.00 mm 538.89 W/m2
12:54 35.0 °C 26.0 °C 1010.5 hPa SE 8 km/h 12 km/h 63% 0.00 mm 408.08 W/m2
12:59 35.0 °C 26.0 °C 1010.5 hPa ESE 19 km/h 20 km/h 64% 0.00 mm 805.02 W/m2
13:04 36.0 °C 27.0 °C 1010.5 hPa SE 4 km/h 4 km/h 60% 0.00 mm 767.68 W/m2
13:09 35.0 °C 26.0 °C 1010.5 hPa SE 12 km/h 16 km/h 64% 0.00 mm 263.78 W/m2
13:14 34.0 °C 26.0 °C 1010.5 hPa ESE 15 km/h 20 km/h 64% 0.00 mm 702.35 W/m2
13:19 34.0 °C 26.0 °C 1010.5 hPa SE 19 km/h 24 km/h 66% 0.00 mm 729.61 W/m2
13:24 35.0 °C 26.0 °C 1010.5 hPa SE 24 km/h 28 km/h 66% 0.00 mm 722.51 W/m2
13:29 34.0 °C 26.0 °C 1010.1 hPa ESE 23 km/h 28 km/h 63% 0.00 mm 612.75 W/m2
13:31 35.0 °C 26.0 °C 1010.0 hPa East 5 km/h 8 km/h 62% 0.00 mm 646.76 W/m2
13:39 35.0 °C 26.0 °C 1010.2 hPa SE 18 km/h 24 km/h 63% 0.00 mm 668.51 W/m2
13:44 35.0 °C 26.0 °C 1010.2 hPa ENE 8 km/h 12 km/h 63% 0.00 mm 670.37 W/m2
13:49 35.0 °C 26.0 °C 1009.8 hPa SE 10 km/h 16 km/h 63% 0.00 mm 670.13 W/m2
13:54 35.0 °C 26.0 °C 1009.8 hPa ESE 17 km/h 20 km/h 63% 0.00 mm 658.24 W/m2
13:58 35.0 °C 27.0 °C 1009.5 hPa SSE 13 km/h 16 km/h 61% 0.00 mm 677.49 W/m2
14:04 35.0 °C 26.0 °C 1009.4 hPa SE 25 km/h 32 km/h 61% 0.00 mm 687.43 W/m2
14:09 36.0 °C 26.0 °C 1009.2 hPa ESE 15 km/h 16 km/h 61% 0.00 mm 642.97 W/m2
14:14 35.0 °C 26.0 °C 1008.8 hPa SSE 22 km/h 28 km/h 62% 0.00 mm 642.87 W/m2
14:19 35.0 °C 26.0 °C 1008.8 hPa SE 26 km/h 32 km/h 62% 0.00 mm 645.29 W/m2
14:21 35.0 °C 26.0 °C 1008.8 hPa SSE 26 km/h 28 km/h 61% 0.00 mm 640.25 W/m2
14:29 36.0 °C 26.0 °C 1009.0 hPa ENE 10 km/h 16 km/h 61% 0.00 mm 628.41 W/m2
14:34 36.0 °C 26.0 °C 1009.1 hPa SE 4 km/h 8 km/h 59% 0.00 mm 362.62 W/m2
14:39 36.0 °C 26.0 °C 1009.3 hPa ESE 8 km/h 8 km/h 59% 0.00 mm 644.00 W/m2
14:44 36.0 °C 26.0 °C 1009.3 hPa ESE 11 km/h 16 km/h 59% 0.00 mm 471.87 W/m2
14:48 35.0 °C 26.0 °C 1009.5 hPa East 10 km/h 16 km/h 59% 0.00 mm 221.84 W/m2
14:54 35.0 °C 25.0 °C 1009.4 hPa East 15 km/h 20 km/h 58% 0.00 mm 194.07 W/m2
14:59 34.0 °C 25.0 °C 1009.3 hPa East 10 km/h 16 km/h 59% 0.00 mm 263.80 W/m2
15:04 35.0 °C 26.0 °C 1009.5 hPa NE 27 km/h 32 km/h 63% 0.00 mm 193.02 W/m2
15:09 33.0 °C 26.0 °C 1009.5 hPa NNW 18 km/h 24 km/h 76% 0.00 mm 144.30 W/m2
15:11 31.0 °C 26.0 °C 1009.3 hPa NNE 27 km/h 32 km/h 77% 0.00 mm 137.94 W/m2
15:19 30.0 °C 26.0 °C 1009.5 hPa NNW 12 km/h 16 km/h 78% 0.00 mm 88.66 W/m2
15:23 30.0 °C 25.0 °C 1009.6 hPa NNW 19 km/h 20 km/h 78% 0.00 mm 88.69 W/m2
15:29 29.0 °C 25.0 °C 1009.7 hPa North 20 km/h 28 km/h 79% 0.00 mm 96.37 W/m2
15:34 29.0 °C 25.0 °C 1009.7 hPa North 22 km/h 28 km/h 79% 0.00 mm 129.52 W/m2
15:39 30.0 °C 25.0 °C 1009.5 hPa North 18 km/h 24 km/h 78% 0.00 mm 239.68 W/m2
15:44 30.0 °C 25.0 °C 1009.6 hPa North 19 km/h 20 km/h 77% 0.00 mm 505.81 W/m2
15:49 30.0 °C 25.0 °C 1009.6 hPa North 21 km/h 24 km/h 76% 0.00 mm 507.52 W/m2
15:54 30.0 °C 25.0 °C 1009.6 hPa North 16 km/h 20 km/h 75% 0.00 mm 504.88 W/m2
15:59 31.0 °C 25.0 °C 1009.5 hPa North 18 km/h 20 km/h 74% 0.00 mm 454.23 W/m2
16:03 31.0 °C 25.0 °C 1009.5 hPa NNW 15 km/h 20 km/h 72% 0.00 mm 490.00 W/m2
16:09 31.0 °C 25.0 °C 1009.5 hPa North 15 km/h 20 km/h 72% 0.00 mm 388.46 W/m2
16:14 30.0 °C 25.0 °C 1009.5 hPa North 12 km/h 16 km/h 72% 0.00 mm 210.19 W/m2
16:19 30.0 °C 25.0 °C 1009.5 hPa North 20 km/h 24 km/h 72% 0.00 mm 207.58 W/m2
16:24 31.0 °C 25.0 °C 1009.5 hPa North 15 km/h 16 km/h 72% 0.00 mm 426.90 W/m2
16:29 31.0 °C 25.0 °C 1009.6 hPa North 23 km/h 24 km/h 73% 0.00 mm 438.52 W/m2
16:34 31.0 °C 26.0 °C 1009.5 hPa North 15 km/h 20 km/h 73% 0.00 mm 426.78 W/m2
16:39 30.0 °C 25.0 °C 1009.5 hPa North 17 km/h 20 km/h 76% 0.00 mm 332.51 W/m2
16:44 31.0 °C 26.0 °C 1009.5 hPa NW 15 km/h 16 km/h 76% 0.00 mm 248.31 W/m2
16:49 30.0 °C 26.0 °C 1009.6 hPa NNW 15 km/h 20 km/h 76% 0.00 mm 234.76 W/m2
16:51 30.0 °C 25.0 °C 1009.7 hPa NNW 15 km/h 16 km/h 76% 0.00 mm 180.51 W/m2
16:57 30.0 °C 25.0 °C 1009.5 hPa NNE 6 km/h 8 km/h 78% 0.00 mm 114.99 W/m2
17:04 30.0 °C 25.0 °C 1009.8 hPa North 13 km/h 16 km/h 79% 0.00 mm 87.59 W/m2
17:09 30.0 °C 26.0 °C 1009.8 hPa NNW 8 km/h 12 km/h 80% 0.00 mm 66.77 W/m2
17:14 30.0 °C 26.0 °C 1009.8 hPa North 8 km/h 12 km/h 80% 0.00 mm 58.01 W/m2
17:19 29.0 °C 26.0 °C 1009.6 hPa NNE 11 km/h 12 km/h 80% 0.00 mm 56.03 W/m2
17:24 29.0 °C 26.0 °C 1009.8 hPa NNE 8 km/h 12 km/h 80% 0.00 mm 50.77 W/m2
17:29 30.0 °C 26.0 °C 1010.2 hPa NNE 9 km/h 12 km/h 79% 0.00 mm 36.05 W/m2
17:34 29.0 °C 25.0 °C 1009.9 hPa NNE 6 km/h 12 km/h 78% 0.00 mm 28.34 W/m2
17:39 30.0 °C 25.0 °C 1010.2 hPa NNE 3 km/h 8 km/h 78% 0.00 mm 23.14 W/m2
17:44 30.0 °C 25.0 °C 1010.2 hPa NNE 8 km/h 8 km/h 78% 0.00 mm 21.68 W/m2
17:49 30.0 °C 25.0 °C 1010.2 hPa NNE 4 km/h 4 km/h 78% 0.00 mm 19.55 W/m2
17:54 30.0 °C 25.0 °C 1010.2 hPa North 5 km/h 8 km/h 78% 0.00 mm 16.52 W/m2
17:56 29.0 °C 25.0 °C 1010.4 hPa North 6 km/h 8 km/h 78% 0.00 mm 9.56 W/m2
18:04 30.0 °C 25.0 °C 1010.6 hPa WSW 2 km/h 4 km/h 78% 0.00 mm 4.82 W/m2
18:09 30.0 °C 26.0 °C 1010.6 hPa SW 2 km/h 4 km/h 79% 0.00 mm 1.17 W/m2
18:14 30.0 °C 26.0 °C 1010.9 hPa West 11 km/h 16 km/h 83% 0.00 mm 0.77 W/m2
18:19 29.0 °C 26.0 °C 1010.8 hPa South 5 km/h 8 km/h 85% 0.00 mm 0.00 W/m2
18:24 28.0 °C 26.0 °C 1011.1 hPa SW 5 km/h 8 km/h 87% 0.00 mm 0.00 W/m2
18:29 28.0 °C 26.0 °C 1011.2 hPa West 4 km/h 8 km/h 88% 0.00 mm 0.00 W/m2
18:33 28.0 °C 26.0 °C 1010.8 hPa SW 4 km/h 8 km/h 88% 0.00 mm 0.00 W/m2
18:39 28.0 °C 26.0 °C 1010.8 hPa SW 6 km/h 8 km/h 88% 0.00 mm 0.00 W/m2
18:44 28.0 °C 26.0 °C 1010.7 hPa SW 4 km/h 8 km/h 88% 0.00 mm 0.00 W/m2
18:48 28.0 °C 26.0 °C 1010.5 hPa NW 4 km/h 4 km/h 87% 0.00 mm 0.00 W/m2
18:54 28.0 °C 26.0 °C 1010.5 hPa SSW 5 km/h 8 km/h 88% 0.00 mm 0.00 W/m2
18:59 28.0 °C 26.0 °C 1010.8 hPa SSW 2 km/h 4 km/h 88% 0.00 mm 0.00 W/m2
19:04 28.0 °C 26.0 °C 1010.8 hPa SSW 1 km/h 4 km/h 87% 0.00 mm 0.00 W/m2
19:09 28.0 °C 26.0 °C 1010.8 hPa WNW 1 km/h 4 km/h 86% 0.00 mm 0.00 W/m2
19:14 28.0 °C 26.0 °C 1010.9 hPa Calm   4 km/h 86% 0.00 mm 0.00 W/m2
19:19 28.0 °C 26.0 °C 1010.8 hPa Calm   4 km/h 86% 0.00 mm 0.00 W/m2
19:23 28.0 °C 26.0 °C 1010.7 hPa SW 2 km/h 4 km/h 85% 0.00 mm 0.00 W/m2
19:29 28.0 °C 26.0 °C 1010.8 hPa WNW 6 km/h 8 km/h 86% 0.00 mm 0.00 W/m2
19:34 28.0 °C 26.0 °C 1010.9 hPa Calm     86% 0.00 mm 0.00 W/m2
19:39 28.0 °C 26.0 °C 1010.9 hPa SSW 1 km/h 4 km/h 85% 0.00 mm 0.00 W/m2
19:44 28.0 °C 25.0 °C 1010.9 hPa SSW 3 km/h 4 km/h 85% 0.00 mm 0.00 W/m2
19:48 28.0 °C 26.0 °C 1010.8 hPa Calm   4 km/h 85% 0.00 mm 0.00 W/m2
19:54 28.0 °C 25.0 °C 1010.9 hPa NW 6 km/h 8 km/h 84% 0.00 mm 0.00 W/m2
19:59 28.0 °C 25.0 °C 1010.9 hPa WNW 3 km/h 4 km/h 84% 0.00 mm 0.00 W/m2
20:04 28.0 °C 25.0 °C 1011.1 hPa WNW 5 km/h 8 km/h 85% 0.00 mm 0.00 W/m2
20:09 28.0 °C 25.0 °C 1010.9 hPa NW 5 km/h 8 km/h 85% 0.00 mm 0.00 W/m2
20:11 28.0 °C 25.0 °C 1010.9 hPa NW 4 km/h 4 km/h 84% 0.00 mm 0.00 W/m2
20:17 28.0 °C 25.0 °C 1010.8 hPa Calm   4 km/h 85% 0.00 mm 0.00 W/m2
20:24 28.0 °C 25.0 °C 1011.2 hPa NW 4 km/h 4 km/h 85% 0.00 mm 0.00 W/m2
20:29 28.0 °C 25.0 °C 1011.2 hPa NW 6 km/h 8 km/h 85% 0.00 mm 0.00 W/m2
20:34 28.0 °C 25.0 °C 1011.2 hPa NNW 5 km/h 8 km/h 85% 0.00 mm 0.00 W/m2
20:38 28.0 °C 25.0 °C 1011.2 hPa NNW 6 km/h 8 km/h 85% 0.00 mm 0.00 W/m2
20:44 28.0 °C 25.0 °C 1011.3 hPa North 5 km/h 8 km/h 85% 0.00 mm 0.00 W/m2
20:49 28.0 °C 25.0 °C 1011.4 hPa North 4 km/h 8 km/h 85% 0.00 mm 0.00 W/m2
20:54 28.0 °C 25.0 °C 1011.3 hPa North 7 km/h 8 km/h 85% 0.00 mm 0.00 W/m2
20:59 28.0 °C 25.0 °C 1011.5 hPa NNW 5 km/h 8 km/h 85% 0.00 mm 0.00 W/m2
21:01 28.0 °C 26.0 °C 1011.5 hPa NNW 5 km/h 8 km/h 86% 0.00 mm 0.00 W/m2
21:08 28.0 °C 25.0 °C 1011.5 hPa North 4 km/h 4 km/h 86% 0.00 mm 0.00 W/m2
21:13 28.0 °C 26.0 °C 1011.5 hPa NNE 5 km/h 8 km/h 87% 0.00 mm 0.00 W/m2
21:19 28.0 °C 26.0 °C 1011.6 hPa NNE 5 km/h 8 km/h 87% 0.00 mm 0.00 W/m2
21:24 28.0 °C 26.0 °C 1011.6 hPa North 5 km/h 8 km/h 87% 0.00 mm 0.00 W/m2
21:28 28.0 °C 25.0 °C 1011.9 hPa North 6 km/h 8 km/h 87% 0.00 mm 0.00 W/m2
21:34 28.0 °C 26.0 °C 1011.7 hPa North 6 km/h 8 km/h 88% 0.00 mm 0.00 W/m2
21:39 28.0 °C 26.0 °C 1011.7 hPa North 9 km/h 12 km/h 88% 0.00 mm 0.00 W/m2
21:44 28.0 °C 26.0 °C 1012.0 hPa North 8 km/h 8 km/h 89% 0.00 mm 0.00 W/m2
21:49 28.0 °C 26.0 °C 1012.0 hPa NNE 6 km/h 8 km/h 89% 0.00 mm 0.00 W/m2
21:51 28.0 °C 26.0 °C 1012.1 hPa NNE 8 km/h 12 km/h 89% 0.00 mm 0.00 W/m2
21:59 28.0 °C 26.0 °C 1012.2 hPa North 5 km/h 8 km/h 90% 0.00 mm 0.00 W/m2
22:04 28.0 °C 26.0 °C 1012.2 hPa North 8 km/h 12 km/h 90% 0.00 mm 0.00 W/m2
22:09 28.0 °C 26.0 °C 1012.3 hPa North 9 km/h 12 km/h 90% 0.00 mm 0.00 W/m2
22:14 28.0 °C 26.0 °C 1012.4 hPa NNE 5 km/h 12 km/h 90% 0.00 mm 0.00 W/m2
22:19 28.0 °C 26.0 °C 1012.5 hPa North 3 km/h 4 km/h 90% 0.00 mm 0.00 W/m2
22:24 28.0 °C 26.0 °C 1012.5 hPa NNW 6 km/h 8 km/h 89% 0.00 mm 0.00 W/m2
22:29 28.0 °C 26.0 °C 1012.3 hPa WNW 8 km/h 8 km/h 90% 0.00 mm 0.00 W/m2
22:34 27.0 °C 26.0 °C 1012.2 hPa NW 4 km/h 4 km/h 90% 0.00 mm 0.00 W/m2
22:39 28.0 °C 26.0 °C 1012.4 hPa NW 3 km/h 4 km/h 90% 0.00 mm 0.00 W/m2
22:43 28.0 °C 26.0 °C 1012.4 hPa NW 5 km/h 8 km/h 90% 0.00 mm 0.00 W/m2
22:48 27.0 °C 25.0 °C 1012.2 hPa NNW 1 km/h 4 km/h 89% 0.00 mm 0.00 W/m2
22:53 28.0 °C 26.0 °C 1012.2 hPa NNW 4 km/h 4 km/h 89% 0.00 mm 0.00 W/m2
22:59 28.0 °C 26.0 °C 1012.5 hPa North 6 km/h 8 km/h 90% 0.00 mm 0.00 W/m2
23:04 27.0 °C 26.0 °C 1012.5 hPa NNE 5 km/h 8 km/h 90% 0.00 mm 0.00 W/m2
23:09 27.0 °C 26.0 °C 1012.2 hPa NNW 1 km/h 4 km/h 90% 0.00 mm 0.00 W/m2
23:14 27.0 °C 26.0 °C 1012.3 hPa North 8 km/h 8 km/h 90% 0.00 mm 0.00 W/m2
23:19 27.0 °C 26.0 °C 1012.5 hPa NNE 5 km/h 8 km/h 90% 0.00 mm 0.00 W/m2
23:24 27.0 °C 26.0 °C 1012.5 hPa WNW 2 km/h 4 km/h 90% 0.00 mm 0.00 W/m2
23:29 28.0 °C 26.0 °C 1012.5 hPa NNW 2 km/h 4 km/h 90% 0.00 mm 0.00 W/m2
23:31 28.0 °C 26.0 °C 1012.5 hPa NNW 1 km/h 4 km/h 90% 0.00 mm 0.00 W/m2
23:39 27.0 °C 25.0 °C 1012.2 hPa Calm     89% 0.00 mm 0.00 W/m2
23:44 27.0 °C 26.0 °C 1012.5 hPa Calm     90% 0.00 mm 0.00 W/m2
23:49 27.0 °C 26.0 °C 1012.5 hPa Calm     90% 0.00 mm 0.00 W/m2
23:54 28.0 °C 26.0 °C 1012.3 hPa Calm     90% 0.00 mm 0.00 W/m2
23:59 28.0 °C 26.0 °C 1012.3 hPa Calm     89% 0.00 mm 0.00 W/m2
PIMOHWEATHER Philippines
Compliments of Weather Underground - 2 mb